Time;durP1;ratioP1;P1;durP2;ratioP2;P2;SDS_P1;SDS_P2;PMS_P1;PMS_P2;Temp;Humidity;BMP_temperature;BMP_pressure;BME280_temperature;BME280_humidity;BME280_pressure;Samples;Min_cycle;Max_cycle;Signal;HPM_P1;HPM_P2
2022/01/31 00:00:51;;;;;;;6.80;2.97;;;;;;;;;;5033416;28;20400;-50
2022/01/31 00:03:18;;;;;;;8.05;3.22;;;;;;;;;;5033233;28;20037;-51
2022/01/31 00:05:44;;;;;;;11.13;3.08;;;;;;;;;;5070982;28;20036;-51
2022/01/31 00:08:10;;;;;;;5.07;2.45;;;;;;;;;;5040540;28;20396;-51
2022/01/31 00:10:36;;;;;;;4.28;1.80;;;;;;;;;;5075945;28;20128;-48
2022/01/31 00:13:18;;;;;;;7.30;2.17;;;;;;;;;;5041055;28;20044;-47
2022/01/31 00:15:47;;;;;;;6.10;2.20;;;;;;;;;;5076421;28;20064;-49
2022/01/31 00:18:13;;;;;;;5.43;2.10;;;;;;;;;;5075658;28;20039;-53
2022/01/31 00:20:40;;;;;;;8.45;2.13;;;;;;;;;;5075838;28;20040;-54
2022/01/31 00:23:06;;;;;;;3.72;1.80;;;;;;;;;;5076065;28;20024;-49
2022/01/31 00:25:32;;;;;;;4.90;2.30;;;5.80;90.40;;;;;;5075558;28;20040;-52
2022/01/31 00:27:57;;;;;;;7.25;2.22;;;5.80;90.60;;;;;;5075598;28;20029;-54
2022/01/31 00:30:23;;;;;;;6.18;2.15;;;5.90;90.50;;;;;;5075661;28;20028;-56
2022/01/31 00:32:49;;;;;;;4.22;1.90;;;5.90;90.80;;;;;;5075069;28;20489;-55
2022/01/31 00:35:15;;;;;;;7.22;2.88;;;5.90;91.20;;;;;;5056257;28;20093;-50
2022/01/31 00:37:40;;;;;;;6.40;2.22;;;5.70;91.20;;;;;;5074645;28;20048;-52
2022/01/31 00:40:08;;;;;;;6.35;2.20;;;5.70;91.30;;;;;;5055972;28;20190;-50
2022/01/31 00:42:35;;;;;;;6.45;2.22;;;5.60;91.60;;;;;;5039380;28;20083;-47
2022/01/31 00:45:43;;;;;;;3.83;1.70;;;5.60;91.40;;;;;;5039342;28;20459;-47
2022/01/31 00:48:03;;;;;;;7.28;2.35;;;5.60;91.60;;;;;;5070230;28;20396;-51
2022/01/31 00:50:30;;;;;;;7.35;2.10;;;5.50;91.80;;;;;;5074755;28;20127;-52
2022/01/31 00:52:56;;;;;;;7.80;2.45;;;5.40;91.90;;;;;;5074572;28;20024;-48
2022/01/31 00:55:22;;;;;;;4.65;2.15;;;5.40;91.70;;;;;;5055738;28;20503;-52
2022/01/31 00:57:47;;;;;;;4.28;1.95;;;5.40;91.60;;;;;;5074471;28;20075;-51
2022/01/31 01:00:15;;;;;;;5.32;2.70;;;5.40;91.40;;;;;;5074324;28;20041;-50
2022/01/31 01:02:41;;;;;;;5.85;2.58;;;5.40;91.20;;;;;;5052005;28;20043;-50
2022/01/31 01:05:07;;;;;;;6.43;2.70;;;5.40;91.20;;;;;;5035254;28;20159;-54
2022/01/31 01:07:33;;;;;;;9.00;2.25;;;5.40;91.20;;;;;;5035158;28;20041;-49
2022/01/31 01:09:59;;;;;;;8.95;2.58;;;5.40;91.40;;;;;;5051950;28;20547;-54
2022/01/31 01:12:25;;;;;;;5.82;2.47;;;5.50;91.60;;;;;;5012258;28;20566;-53
2022/01/31 01:14:51;;;;;;;5.57;2.38;;;5.50;91.70;;;;;;5011773;28;20049;-53
2022/01/31 01:17:18;;;;;;;8.00;2.78;;;5.40;91.90;;;;;;4979198;28;20061;-50
2022/01/31 01:19:44;;;;;;;6.15;2.90;;;5.40;91.80;;;;;;4979280;28;20052;-50
2022/01/31 01:22:10;;;;;;;4.97;2.50;;;5.40;91.90;;;;;;4995548;28;20085;-47
2022/01/31 01:24:36;;;;;;;10.60;3.85;;;5.40;92.00;;;;;;5011709;28;20096;-48
2022/01/31 01:27:02;;;;;;;5.75;3.17;;;5.40;91.80;;;;;;5011958;28;20129;-50
2022/01/31 01:29:28;;;;;;;6.65;2.90;;;5.40;91.80;;;;;;4963006;28;20069;-48
2022/01/31 01:31:54;;;;;;;7.93;2.85;;;5.40;91.40;;;;;;5011850;28;20101;-49
2022/01/31 01:34:22;;;;;;;5.95;3.08;;;5.50;91.50;;;;;;5011805;28;20054;-52
2022/01/31 01:36:52;;;;;;;14.18;3.22;;;5.50;91.30;;;;;;5011837;28;20037;-49
2022/01/31 01:39:18;;;;;;;9.98;3.50;;;5.60;91.40;;;;;;5011653;28;20068;-47
2022/01/31 01:41:44;;;;;;;11.35;4.15;;;5.60;91.40;;;;;;5011670;28;20525;-48
2022/01/31 01:44:10;;;;;;;8.75;3.70;;;5.60;91.00;;;;;;5062305;28;20131;-53
2022/01/31 01:46:36;;;;;;;8.45;3.45;;;5.70;90.90;;;;;;5073876;28;20115;-46
2022/01/31 01:49:02;;;;;;;8.82;4.35;;;5.70;91.00;;;;;;5073333;28;20084;-48
2022/01/31 01:51:30;;;;;;;6.75;3.50;;;5.80;91.00;;;;;;5066833;28;20112;-53
2022/01/31 01:53:57;;;;;;;8.52;3.30;;;5.80;90.80;;;;;;5053343;28;20037;-50
2022/01/31 01:56:23;;;;;;;8.98;3.25;;;5.90;90.40;;;;;;5053165;28;20033;-53
2022/01/31 01:58:49;;;;;;;8.80;3.10;;;5.90;90.20;;;;;;5053475;28;20112;-48
2022/01/31 02:01:15;;;;;;;8.80;3.38;;;5.90;90.20;;;;;;5053270;28;20036;-51
2022/01/31 02:03:41;;;;;;;5.60;2.60;;;5.90;90.20;;;;;;5053539;28;20035;-52
2022/01/31 02:06:07;;;;;;;8.43;2.60;;;5.90;90.20;;;;;;5053283;28;20037;-47
2022/01/31 02:08:41;;;;;;;7.53;2.90;;;6.00;90.20;;;;;;5053104;28;20048;-51
2022/01/31 02:11:10;;;;;;;7.72;3.78;;;6.00;90.50;;;;;;5053229;28;20567;-51
2022/01/31 02:13:37;;;;;;;6.68;3.10;;;6.00;90.30;;;;;;5053350;28;20033;-52
2022/01/31 02:16:04;;;;;;;8.50;3.22;;;6.00;90.20;;;;;;5053186;28;20119;-53
2022/01/31 02:18:31;;;;;;;8.82;3.42;;;6.00;90.30;;;;;;5034576;28;20037;-49
2022/01/31 02:20:57;;;;;;;7.53;2.58;;;6.00;90.30;;;;;;5053453;28;20033;-53
2022/01/31 02:23:23;;;;;;;5.85;2.60;;;5.80;90.20;;;;;;5053212;28;20060;-55
2022/01/31 02:26:01;;;;;;;8.85;2.90;;;5.80;90.60;;;;;;5053303;28;20064;-52
2022/01/31 02:28:29;;;;;;;6.25;2.53;;;5.80;90.90;;;;;;5057475;28;20112;-51
2022/01/31 02:30:56;;;;;;;7.13;2.63;;;5.80;90.80;;;;;;5057194;28;20032;-51
2022/01/31 02:33:23;;;;;;;7.47;3.47;;;5.90;90.60;;;;;;5038347;28;20045;-49
2022/01/31 02:35:52;;;;;;;6.70;2.95;;;5.90;90.60;;;;;;5057147;28;20507;-49
2022/01/31 02:38:17;;;;;;;7.50;2.42;;;5.80;90.40;;;;;;5056997;28;20120;-51
2022/01/31 02:40:44;;;;;;;7.32;3.20;;;5.80;90.60;;;;;;5056704;28;20111;-51
2022/01/31 02:43:11;;;;;;;6.72;2.45;;;5.80;90.70;;;;;;5056890;28;20446;-52
2022/01/31 02:45:37;;;;;;;10.98;2.70;;;5.70;90.70;;;;;;5056793;28;20033;-48
2022/01/31 02:48:04;;;;;;;8.00;3.40;;;5.70;90.80;;;;;;5056681;28;20127;-52
2022/01/31 02:50:30;;;;;;;5.80;2.47;;;5.70;90.70;;;;;;5056751;28;20033;-52
2022/01/31 02:53:13;;;;;;;7.00;2.47;;;5.90;90.70;;;;;;5056774;28;20107;-48
2022/01/31 02:55:44;;;;;;;7.93;3.08;;;5.80;90.70;;;;;;5034385;28;20048;-50
2022/01/31 02:58:10;;;;;;;7.00;2.10;;;5.80;90.70;;;;;;5014964;28;20072;-48
2022/01/31 03:00:37;;;;;;;6.93;2.95;;;5.90;90.70;;;;;;5034274;28;20038;-52
2022/01/31 03:03:04;;;;;;;6.32;2.63;;;5.90;90.80;;;;;;5034379;28;20029;-50
2022/01/31 03:05:30;;;;;;;10.07;2.53;;;6.00;90.80;;;;;;5034184;28;20061;-52
2022/01/31 03:07:56;;;;;;;8.73;2.67;;;5.90;91.00;;;;;;5017721;28;20034;-51
2022/01/31 03:10:22;;;;;;;9.57;2.75;;;5.80;91.00;;;;;;5000967;28;20398;-50
2022/01/31 03:12:47;;;;;;;17.92;7.63;;;5.80;91.40;;;;;;5034245;28;20048;-51
2022/01/31 03:15:13;;;;;;;8.85;3.15;;;5.80;91.00;;;;;;4984696;28;20048;-49
2022/01/31 03:17:42;;;;;;;7.00;2.60;;;5.80;90.90;;;;;;5034042;28;20038;-52
2022/01/31 03:20:09;;;;;;;8.10;2.90;;;5.60;91.70;;;;;;5034015;28;20393;-49
2022/01/31 03:22:34;;;;;;;6.70;2.47;;;5.50;91.80;;;;;;5034030;28;20032;-53
2022/01/31 03:25:00;;;;;;;9.00;2.22;;;5.60;92.40;;;;;;5033876;28;20025;-49
2022/01/31 03:27:26;;;;;;;10.32;3.10;;;5.50;90.90;;;;;;5055095;28;20033;-53
2022/01/31 03:29:52;;;;;;;6.70;2.50;;;5.40;90.90;;;;;;5020745;28;20033;-54
2022/01/31 03:32:18;;;;;;;6.40;3.60;;;5.30;91.40;;;;;;5037354;28;20492;-52
2022/01/31 03:34:43;;;;;;;7.60;3.35;;;5.30;91.40;;;;;;5037305;28;20037;-54
2022/01/31 03:37:09;;;;;;;16.23;8.57;;;5.30;91.40;;;;;;5055485;28;20518;-48
2022/01/31 03:39:35;;;;;;;30.90;16.35;;;5.20;91.70;;;;;;5055831;28;20029;-53
2022/01/31 03:42:01;;;;;;;18.50;9.05;;;5.30;91.50;;;;;;5020751;28;20040;-50
2022/01/31 03:44:26;;;;;;;37.53;16.00;;;5.40;91.50;;;;;;5020428;28;20365;-53
2022/01/31 03:46:52;;;;;;;12.30;5.78;;;5.40;91.30;;;;;;5037846;28;20025;-51
2022/01/31 03:49:18;;;;;;;9.02;2.83;;;5.40;91.10;;;;;;5036957;28;20048;-48
2022/01/31 03:51:44;;;;;;;8.63;3.20;;;5.30;91.40;;;;;;5055658;28;20043;-50
2022/01/31 03:54:10;;;;;;;9.80;4.60;;;5.20;91.40;;;;;;5036901;28;20041;-48
2022/01/31 03:56:37;;;;;;;19.73;7.68;;;5.40;91.00;;;;;;5055458;28;20029;-51
2022/01/31 03:59:02;;;;;;;12.10;3.90;;;5.50;90.80;;;;;;5055432;28;20134;-51
2022/01/31 04:01:28;;;;;;;53.33;26.38;;;5.50;90.70;;;;;;5055413;28;20481;-49
2022/01/31 04:03:54;;;;;;;51.17;29.58;;;5.60;90.40;;;;;;5055468;28;20029;-51
2022/01/31 04:06:20;;;;;;;21.33;11.93;;;5.70;90.10;;;;;;4987410;28;20110;-51
2022/01/31 04:08:46;;;;;;;39.78;20.48;;;5.70;90.00;;;;;;5036452;28;20037;-52
2022/01/31 04:11:11;;;;;;;11.40;5.22;;;5.70;90.10;;;;;;5020385;28;20098;-54
2022/01/31 04:13:37;;;;;;;18.50;10.35;;;5.70;90.20;;;;;;5055196;28;20029;-49
2022/01/31 04:16:03;;;;;;;8.15;2.83;;;5.70;90.20;;;;;;5055015;28;20029;-52
2022/01/31 04:18:29;;;;;;;6.55;2.95;;;5.50;90.40;;;;;;5036643;28;20037;-49
2022/01/31 04:20:55;;;;;;;7.97;2.70;;;5.50;90.60;;;;;;5055138;28;20430;-52
2022/01/31 04:23:23;;;;;;;5.60;2.90;;;5.60;90.30;;;;;;5003310;28;20041;-52
2022/01/31 04:28:31;;;;;;;14.88;4.30;;;5.70;89.70;;;;;;5055198;28;20063;-48
2022/01/31 04:33:24;;;;;;;57.42;9.50;;;5.90;89.20;;;;;;5016334;28;20512;-48
2022/01/31 04:35:50;;;;;;;17.88;6.43;;;6.00;89.30;;;;;;5032592;28;20034;-50
2022/01/31 04:38:17;;;;;;;9.68;5.20;;;6.10;89.60;;;;;;5032591;28;20034;-52
2022/01/31 04:40:43;;;;;;;11.55;4.45;;;6.10;89.10;;;;;;5015482;28;20072;-46
2022/01/31 04:43:09;;;;;;;11.07;5.43;;;6.10;88.70;;;;;;5015894;28;20124;-50
2022/01/31 04:45:35;;;;;;;11.35;3.85;;;6.20;89.20;;;;;;5015943;28;20041;-49
2022/01/31 04:48:02;;;;;;;11.30;4.28;;;;;;;;;;5032341;28;20053;-49
2022/01/31 04:50:27;;;;;;;36.53;18.38;;;6.20;88.00;;;;;;5031590;28;20071;-49
2022/01/31 04:52:53;;;;;;;38.25;20.67;;;6.20;88.30;;;;;;5015239;28;20044;-49
2022/01/31 04:55:19;;;;;;;22.48;11.20;;;6.10;88.30;;;;;;5032249;28;20029;-52
2022/01/31 04:57:44;;;;;;;20.95;10.30;;;6.20;88.20;;;;;;4983041;28;20132;-50
2022/01/31 05:00:11;;;;;;;27.98;10.93;;;6.10;87.40;;;;;;4999114;28;20038;-51
2022/01/31 05:02:37;;;;;;;57.03;22.58;;;6.30;87.60;;;;;;5052488;28;20044;-52
2022/01/31 05:05:03;;;;;;;18.08;8.13;;;6.10;87.40;;;;;;5054208;28;20021;-49
2022/01/31 05:07:29;;;;;;;11.73;3.63;;;5.60;88.60;;;;;;5018985;28;20029;-49
2022/01/31 05:09:55;;;;;;;8.95;3.85;;;5.20;90.20;;;;;;5035858;28;20029;-49
2022/01/31 05:12:22;;;;;;;11.13;5.40;;;4.90;90.60;;;;;;5054176;28;20032;-52
2022/01/31 05:14:48;;;;;;;15.18;6.05;;;5.00;90.60;;;;;;5054436;28;20123;-52
2022/01/31 05:17:14;;;;;;;50.17;28.48;;;5.00;90.80;;;;;;5053970;28;20111;-51
2022/01/31 05:19:39;;;;;;;42.88;24.70;;;4.80;91.00;;;;;;5035493;28;20037;-53
2022/01/31 05:22:05;;;;;;;37.97;17.17;;;4.70;91.40;;;;;;5064186;28;20020;-53
2022/01/31 05:24:31;;;;;;;26.05;14.25;;;4.60;91.30;;;;;;5068156;28;20115;-50
2022/01/31 05:26:56;;;;;;;32.53;15.20;;;4.70;91.20;;;;;;5072653;28;20021;-53
2022/01/31 05:29:22;;;;;;;33.10;19.70;;;4.90;91.50;;;;;;5072076;28;20037;-50
2022/01/31 05:31:48;;;;;;;29.92;17.02;;;4.90;92.00;;;;;;5047546;28;20424;-52
2022/01/31 05:34:15;;;;;;;33.85;19.25;;;4.80;92.00;;;;;;5044986;28;20041;-51
2022/01/31 05:36:41;;;;;;;33.50;17.83;;;4.70;91.80;;;;;;5010895;28;20041;-46
2022/01/31 05:39:07;;;;;;;31.58;17.95;;;4.50;92.00;;;;;;5025211;28;20033;-49
2022/01/31 05:41:33;;;;;;;34.03;16.38;;;4.60;93.00;;;;;;5048283;28;20087;-53
2022/01/31 05:43:59;;;;;;;56.22;28.85;;;4.70;92.50;;;;;;5027795;28;20029;-49
2022/01/31 05:46:25;;;;;;;42.35;21.08;;;4.90;92.20;;;;;;5060502;28;20027;-51
2022/01/31 05:48:51;;;;;;;44.38;20.35;;;5.00;91.90;;;;;;5046242;28;20481;-52
2022/01/31 05:51:22;;;;;;;36.70;19.48;;;5.20;91.60;;;;;;5060994;28;20029;-51
2022/01/31 05:53:49;;;;;;;47.45;17.98;;;5.20;91.70;;;;;;5066596;28;20492;-50
2022/01/31 05:56:17;;;;;;;28.15;13.55;;;5.30;91.40;;;;;;5072066;28;20078;-50
2022/01/31 05:58:43;;;;;;;35.63;17.05;;;5.30;91.10;;;;;;5072585;28;20093;-49
2022/01/31 06:01:10;;;;;;;32.55;14.82;;;5.40;91.00;;;;;;5069703;28;20028;-50
2022/01/31 06:03:37;;;;;;;32.78;18.23;;;5.50;91.30;;;;;;5055308;28;20363;-48
2022/01/31 06:06:03;;;;;;;48.58;21.40;;;5.40;91.20;;;;;;5052021;28;20116;-49
2022/01/31 06:08:30;;;;;;;42.95;19.20;;;4.80;91.50;;;;;;5038998;28;20068;-49
2022/01/31 06:10:56;;;;;;;28.77;13.55;;;4.20;92.30;;;;;;5072046;28;20024;-50
2022/01/31 06:13:28;;;;;;;48.15;33.30;;;3.90;99.90;;;;;;5071967;28;20033;-48
2022/01/31 06:15:54;;;;;;;37.17;18.73;;;3.60;94.20;;;;;;5021690;28;20094;-48
2022/01/31 06:18:20;;;;;;;25.88;12.40;;;3.60;94.60;;;;;;5071914;28;20036;-49
2022/01/31 06:20:46;;;;;;;28.33;10.73;;;;;;;;;;5071871;28;20031;-50
2022/01/31 06:23:13;;;;;;;28.35;11.43;;;4.40;99.90;;;;;;5070560;28;20020;-47
2022/01/31 06:25:39;;;;;;;32.33;13.23;;;4.70;99.90;;;;;;5065265;28;20033;-50
2022/01/31 06:28:06;;;;;;;25.05;12.00;;;5.00;99.90;;;;;;5059256;28;20025;-47
2022/01/31 06:30:33;;;;;;;31.02;12.52;;;5.10;99.90;;;;;;5059672;28;20051;-51
2022/01/31 06:32:59;;;;;;;25.65;13.32;;;5.30;99.90;;;;;;5062335;28;20024;-49
2022/01/31 06:35:25;;;;;;;36.45;20.52;;;5.40;99.90;;;;;;5024702;28;20133;-48
2022/01/31 06:37:52;;;;;;;57.22;28.45;;;5.60;99.90;;;;;;5059928;28;20037;-48
2022/01/31 06:40:18;;;;;;;43.22;22.40;;;5.50;99.90;;;;;;5047828;28;20040;-47
2022/01/31 06:42:44;;;;;;;47.50;21.73;;;5.10;99.90;;;;;;5067278;28;20499;-48
2022/01/31 06:45:10;;;;;;;49.53;23.92;;;;;;;;;;5065564;28;20044;-49
2022/01/31 06:47:36;;;;;;;42.58;17.17;;;;;;;;;;5057242;28;20049;-50
2022/01/31 06:50:04;;;;;;;61.22;26.17;;;6.40;90.80;;;;;;5044696;28;20480;-50
2022/01/31 06:52:33;;;;;;;89.85;32.70;;;7.20;99.90;;;;;;5032238;28;20124;-48
2022/01/31 06:55:04;;;;;;;87.97;34.03;;;7.60;99.90;;;;;;5071659;28;20029;-52
2022/01/31 06:57:34;;;;;;;59.03;24.73;;;;;;;;;;5059529;28;20041;-50
2022/01/31 07:00:04;;;;;;;77.05;28.23;;;7.60;88.90;;;;;;5061270;28;20469;-48
2022/01/31 07:02:30;;;;;;;66.75;25.85;;;7.70;94.50;;;;;;5021630;28;20039;-49
2022/01/31 07:04:57;;;;;;;87.03;42.88;;;7.50;94.10;;;;;;5051678;28;20025;-51
2022/01/31 07:07:22;;;;;;;60.10;33.38;;;7.20;93.70;;;;;;5032659;28;20037;-48
2022/01/31 07:09:48;;;;;;;32.72;19.83;;;6.20;91.00;;;;;;5051471;28;20025;-49
2022/01/31 07:12:16;;;;;;;17.98;10.30;;;;;;;;;;5052035;28;20036;-49
2022/01/31 07:14:42;;;;;;;20.50;10.70;;;5.10;92.40;;;;;;4987669;28;20175;-49
2022/01/31 07:17:08;;;;;;;22.83;12.65;;;4.80;93.30;;;;;;5019688;28;20463;-49
2022/01/31 07:19:37;;;;;;;31.73;15.27;;;4.60;93.90;;;;;;5019646;28;20410;-49
2022/01/31 07:22:07;;;;;;;35.00;17.38;;;4.60;94.00;;;;;;5055363;28;20025;-47
2022/01/31 07:27:02;;;;;;;20.20;10.00;;;4.50;94.20;;;;;;5055168;28;20040;-50
2022/01/31 07:29:29;;;;;;;25.60;12.98;;;4.50;99.90;;;;;;5054883;28;20416;-46
2022/01/31 07:31:59;;;;;;;25.75;12.35;;;4.50;94.60;;;;;;5054795;28;20627;-51
2022/01/31 07:34:25;;;;;;;31.17;16.50;;;4.70;94.30;;;;;;5019625;28;20029;-47
2022/01/31 07:36:52;;;;;;;57.63;30.25;;;5.20;93.40;;;;;;5051257;28;20913;-46
2022/01/31 07:39:19;;;;;;;29.17;14.23;;;;;;;;;;5002611;28;20658;-48
2022/01/31 07:41:46;;;;;;;32.00;15.65;;;7.10;99.90;;;;;;5054590;28;20040;-52
2022/01/31 07:44:13;;;;;;;36.15;17.00;;;;;;;;;;5054664;28;20025;-50
2022/01/31 07:46:39;;;;;;;39.72;15.25;;;;;;;;;;5020469;28;20035;-49
2022/01/31 07:49:06;;;;;;;34.47;19.67;;;10.80;84.50;;;;;;5055705;28;20037;-46
2022/01/31 07:51:35;;;;;;;39.65;23.73;;;10.70;82.80;;;;;;5052741;28;20025;-50
2022/01/31 07:54:01;;;;;;;32.63;18.30;;;10.40;82.90;;;;;;5055713;28;20389;-48
2022/01/31 07:56:27;;;;;;;25.20;13.82;;;10.00;81.80;;;;;;4954742;28;20040;-44
2022/01/31 07:58:53;;;;;;;19.42;10.57;;;9.10;84.40;;;;;;5020377;28;20202;-45
2022/01/31 08:01:20;;;;;;;21.63;10.75;;;8.20;84.50;;;;;;5048047;28;20029;-44
2022/01/31 08:03:47;;;;;;;14.40;7.60;;;8.10;84.50;;;;;;5060866;28;20029;-49
2022/01/31 08:06:13;;;;;;;19.75;10.05;;;7.60;99.90;;;;;;5058068;28;20036;-47
2022/01/31 08:08:41;;;;;;;15.77;8.45;;;;;;;;;;5064163;28;20031;-48
2022/01/31 08:11:07;;;;;;;11.60;4.38;;;7.10;91.10;;;;;;5061992;28;20127;-46
2022/01/31 08:13:34;;;;;;;31.83;14.88;;;6.40;88.90;;;;;;5062778;28;20078;-44
2022/01/31 08:18:34;;;;;;;12.13;6.57;;;6.30;90.70;;;;;;5065338;28;20071;-48
2022/01/31 08:21:03;;;;;;;23.38;10.95;;;6.10;91.10;;;;;;5061335;28;20025;-47
2022/01/31 08:23:29;;;;;;;17.95;8.32;;;;;;;;;;5063654;28;20032;-50
2022/01/31 08:25:57;;;;;;;13.40;4.72;;;;;;;;;;5055590;28;20028;-48
2022/01/31 08:28:33;;;;;;;32.00;16.75;;;;;;;;;;5074856;28;20020;-48
2022/01/31 08:31:06;;;;;;;17.05;7.30;;;;;;;;;;5074677;28;20087;-49
2022/01/31 08:33:36;;;;;;;19.92;10.15;;;;;;;;;;5034608;28;20056;-48
2022/01/31 08:36:04;;;;;;;25.42;13.13;;;;;;;;;;5054686;28;20040;-46
2022/01/31 08:38:30;;;;;;;57.53;29.92;;;7.10;99.90;;;;;;5054735;28;20033;-47
2022/01/31 08:40:58;;;;;;;56.83;31.85;;;7.70;90.20;;;;;;5054643;28;20131;-48
2022/01/31 08:43:25;;;;;;;29.75;21.05;;;8.70;87.90;;;;;;5054816;28;20025;-47
2022/01/31 08:45:53;;;;;;;17.77;11.27;;;9.60;85.60;;;;;;5053865;28;20058;-50
2022/01/31 08:48:19;;;;;;;15.20;9.65;;;11.30;84.10;;;;;;5054628;28;20055;-49
2022/01/31 08:50:45;;;;;;;15.98;7.60;;;11.30;82.40;;;;;;5054948;28;20357;-47
2022/01/31 08:53:11;;;;;;;10.43;3.55;;;10.50;82.30;;;;;;5019541;28;20037;-49
2022/01/31 08:55:36;;;;;;;4.60;2.30;;;9.30;83.50;;;;;;5060456;28;20032;-51
2022/01/31 08:58:06;;;;;;;11.60;3.97;;;8.60;84.70;;;;;;5045145;28;20052;-49
2022/01/31 09:00:36;;;;;;;12.65;4.70;;;8.50;86.20;;;;;;5046950;28;20049;-50
2022/01/31 09:03:21;;;;;;;11.52;5.20;;;8.40;86.50;;;;;;5029930;28;20037;-50
2022/01/31 09:05:47;;;;;;;10.93;5.95;;;8.20;87.10;;;;;;5064433;28;20032;-47
2022/01/31 09:08:13;;;;;;;7.63;3.13;;;8.20;87.40;;;;;;5062637;28;20024;-49
2022/01/31 09:10:40;;;;;;;5.97;3.03;;;8.00;87.70;;;;;;4980222;28;20536;-51
2022/01/31 09:13:06;;;;;;;5.78;3.35;;;7.90;87.50;;;;;;5073033;28;20464;-48
2022/01/31 09:15:32;;;;;;;10.70;4.15;;;;;;;;;;5074123;28;20047;-48
2022/01/31 09:18:02;;;;;;;13.30;3.67;;;;;;;;;;5074120;28;20068;-48
2022/01/31 09:20:27;;;;;;;9.50;3.00;;;8.00;92.80;;;;;;5024322;28;20495;-46
2022/01/31 09:22:53;;;;;;;10.38;4.80;;;7.90;90.90;;;;;;5072296;28;20028;-49
2022/01/31 09:25:19;;;;;;;29.65;17.10;;;8.20;91.70;;;;;;5073450;28;20028;-49
2022/01/31 09:27:45;;;;;;;28.73;16.77;;;8.50;96.10;;;;;;5073827;28;20024;-48
2022/01/31 09:30:12;;;;;;;10.68;5.82;;;8.50;89.10;;;;;;5073160;28;20035;-48
2022/01/31 09:32:38;;;;;;;8.05;3.22;;;8.70;88.30;;;;;;5070961;28;20071;-48
2022/01/31 09:35:04;;;;;;;10.43;3.92;;;8.30;87.30;;;;;;5038142;28;20060;-47
2022/01/31 09:37:30;;;;;;;11.00;4.72;;;8.40;88.20;;;;;;5053741;28;20469;-48
2022/01/31 09:40:03;;;;;;;5.82;3.83;;;8.70;88.60;;;;;;5053654;28;20078;-49
2022/01/31 09:42:36;;;;;;;12.35;5.30;;;8.80;87.30;;;;;;5053798;28;20028;-50
2022/01/31 09:45:10;;;;;;;10.10;4.03;;;9.20;87.50;;;;;;5053306;28;20033;-50
2022/01/31 09:50:20;;;;;;;4.82;2.13;;;9.30;86.90;;;;;;5062764;28;20031;-46
2022/01/31 09:52:45;;;;;;;8.88;3.20;;;8.90;86.50;;;;;;5037851;28;20420;-47
2022/01/31 09:55:12;;;;;;;8.18;2.60;;;9.20;86.30;;;;;;5074011;28;20098;-46
2022/01/31 09:57:38;;;;;;;6.38;2.72;;;9.00;84.70;;;;;;5021697;28;20047;-45
2022/01/31 10:00:05;;;;;;;7.05;3.63;;;8.90;85.60;;;;;;5073042;28;20028;-48
2022/01/31 10:02:32;;;;;;;7.60;3.58;;;9.10;87.00;;;;;;5038501;28;20116;-46
2022/01/31 10:04:57;;;;;;;10.25;5.10;;;9.40;85.70;;;;;;5073295;28;20024;-47
2022/01/31 10:07:23;;;;;;;11.02;4.85;;;9.50;85.70;;;;;;5073728;28;20034;-42
2022/01/31 10:09:50;;;;;;;10.10;5.78;;;9.50;85.50;;;;;;5037868;28;20037;-46
2022/01/31 10:17:57;;;;;;;9.20;4.10;;;10.00;87.20;;;;;;5029332;28;20526;-47
2022/01/31 10:20:31;;;;;;;7.85;3.78;;;10.60;89.70;;;;;;5073321;28;20028;-46
2022/01/31 10:23:06;;;;;;;9.60;4.22;;;10.50;82.50;;;;;;5073629;28;20040;-46
2022/01/31 10:25:32;;;;;;;21.88;12.52;;;;;;;;;;5073029;28;20360;-45
2022/01/31 10:27:59;;;;;;;7.97;3.30;;;11.40;91.20;;;;;;5073262;28;20020;-47
2022/01/31 10:30:27;;;;;;;8.23;3.30;;;11.30;79.20;;;;;;5004829;28;20040;-47
2022/01/31 10:32:54;;;;;;;8.15;3.38;;;;;;;;;;5073185;28;20529;-46
2022/01/31 10:35:28;;;;;;;16.83;5.20;;;11.90;78.40;;;;;;5073264;28;20112;-48
2022/01/31 10:38:02;;;;;;;10.10;3.40;;;12.10;78.80;;;;;;5057439;28;20067;-49
2022/01/31 10:46:21;;;;;;;16.63;8.15;;;11.20;78.50;;;;;;5009610;28;20051;-48
2022/01/31 10:56:47;;;;;;;8.73;3.45;;;9.90;81.10;;;;;;5056695;28;20473;-47
2022/01/31 10:59:16;;;;;;;10.45;3.45;;;9.70;88.50;;;;;;5056635;28;20119;-48
2022/01/31 11:01:46;;;;;;;6.75;3.40;;;9.30;82.90;;;;;;5056557;28;20043;-47
2022/01/31 11:04:15;;;;;;;11.63;3.80;;;9.00;84.20;;;;;;5056865;28;20044;-48
2022/01/31 11:06:42;;;;;;;11.02;4.13;;;9.40;83.40;;;;;;5056485;28;20037;-47
2022/01/31 11:09:14;;;;;;;13.05;6.10;;;9.10;83.40;;;;;;5018824;28;20094;-53
2022/01/31 11:11:42;;;;;;;11.18;4.68;;;9.20;86.60;;;;;;5021265;28;20369;-52
2022/01/31 11:14:09;;;;;;;7.13;3.05;;;9.30;85.00;;;;;;5021508;28;20148;-50
2022/01/31 11:16:37;;;;;;;13.40;5.93;;;9.30;85.00;;;;;;5056301;28;20028;-50
2022/01/31 11:19:07;;;;;;;8.48;3.95;;;9.40;85.50;;;;;;5021378;28;20032;-53
2022/01/31 11:21:36;;;;;;;6.70;4.07;;;9.40;84.00;;;;;;5056379;28;20118;-47
2022/01/31 11:24:06;;;;;;;8.15;3.45;;;9.10;84.40;;;;;;5056241;28;20473;-47
2022/01/31 11:26:40;;;;;;;10.70;3.85;;;8.90;85.20;;;;;;5056142;28;20074;-50
2022/01/31 11:29:07;;;;;;;12.55;4.82;;;9.30;90.60;;;;;;5056623;28;20372;-49
2022/01/31 11:31:38;;;;;;;9.07;4.47;;;9.30;85.50;;;;;;5055970;28;20527;-52
2022/01/31 11:34:06;;;;;;;6.10;3.15;;;9.50;91.10;;;;;;5056007;28;20028;-49
2022/01/31 11:36:34;;;;;;;8.30;3.10;;;9.60;90.50;;;;;;5055768;28;20530;-49
2022/01/31 11:39:02;;;;;;;7.82;3.67;;;9.50;91.20;;;;;;4994393;28;20065;-55
2022/01/31 11:41:28;;;;;;;7.50;2.30;;;9.60;85.00;;;;;;4994823;28;20084;-48
2022/01/31 11:44:01;;;;;;;14.60;6.15;;;9.60;84.20;;;;;;4994601;28;20085;-53
2022/01/31 11:46:28;;;;;;;10.68;5.95;;;10.50;94.40;;;;;;4994284;28;20026;-49
2022/01/31 11:48:54;;;;;;;17.25;7.10;;;10.20;87.80;;;;;;4994133;28;20081;-50
2022/01/31 11:51:21;;;;;;;10.35;4.82;;;10.30;91.10;;;;;;4994481;28;20061;-48
2022/01/31 11:53:47;;;;;;;11.93;4.97;;;10.20;90.30;;;;;;4994282;28;20042;-53
2022/01/31 11:56:22;;;;;;;9.45;4.05;;;10.30;89.60;;;;;;4994389;28;20032;-46
2022/01/31 11:58:54;;;;;;;15.95;5.00;;;10.00;90.40;;;;;;4993705;28;20062;-50
2022/01/31 12:01:23;;;;;;;10.30;4.45;;;10.00;90.10;;;;;;4994228;28;20026;-55
2022/01/31 12:03:51;;;;;;;6.85;2.72;;;;;;;;;;5002326;28;20037;-53
2022/01/31 12:06:20;;;;;;;7.05;4.35;;;;;;;;;;5015069;28;20030;-52
2022/01/31 12:08:49;;;;;;;9.25;3.40;;;;;;;;;;5013862;28;20112;-51
2022/01/31 12:11:25;;;;;;;7.72;3.70;;;;;;;;;;5075914;28;20035;-53
2022/01/31 12:13:56;;;;;;;3.72;1.98;;;8.60;86.80;;;;;;5075615;28;20036;-53
2022/01/31 12:19:34;;;;;;;12.43;3.72;;;8.50;87.90;;;;;;5075706;28;20656;-53
2022/01/31 12:22:02;;;;;;;6.53;3.33;;;8.60;88.60;;;;;;5075486;28;20086;-53
2022/01/31 12:24:31;;;;;;;7.28;3.53;;;8.70;88.30;;;;;;5075471;28;20021;-53
2022/01/31 12:27:17;;;;;;;10.70;4.28;;;8.60;87.90;;;;;;5075271;28;20024;-52
2022/01/31 12:29:47;;;;;;;539.67;164.93;;;9.20;89.20;;;;;;5075053;28;20116;-53
2022/01/31 12:32:24;;;;;;;8.45;3.83;;;9.60;88.30;;;;;;5075135;28;20032;-53
2022/01/31 12:34:56;;;;;;;5.00;2.78;;;9.30;87.30;;;;;;5075930;28;20043;-53
2022/01/31 12:37:26;;;;;;;7.53;2.87;;;9.30;86.60;;;;;;5072195;28;20045;-53
2022/01/31 12:40:18;;;;;;;6.47;2.35;;;9.10;87.00;;;;;;5075235;28;20768;-52
2022/01/31 12:45:24;;;;;;;6.38;2.45;;;8.70;87.90;;;;;;5075905;28;20035;-52
2022/01/31 12:48:09;;;;;;;8.23;2.95;;;8.70;87.00;;;;;;5074951;28;20041;-53
2022/01/31 12:50:39;;;;;;;6.55;3.20;;;8.60;89.90;;;;;;5074888;28;20028;-53
2022/01/31 12:53:38;;;;;;;10.25;3.88;;;8.60;89.40;;;;;;5074742;28;20032;-53
2022/01/31 12:56:06;;;;;;;8.32;3.28;;;8.60;88.60;;;;;;5074504;28;20036;-53
2022/01/31 12:58:34;;;;;;;8.00;2.53;;;8.90;89.40;;;;;;5074882;28;20411;-53
2022/01/31 13:01:10;;;;;;;4.80;2.03;;;8.70;88.10;;;;;;5074615;28;20028;-53
2022/01/31 13:03:37;;;;;;;6.45;3.03;;;8.60;88.20;;;;;;5073648;28;20032;-53
2022/01/31 13:06:22;;;;;;;5.43;2.20;;;8.60;88.60;;;;;;5073038;28;20055;-54
2022/01/31 13:08:48;;;;;;;8.75;2.92;;;8.60;88.80;;;;;;5073042;28;20020;-53
2022/01/31 13:11:14;;;;;;;8.60;3.38;;;8.70;89.30;;;;;;5072325;28;20102;-53
2022/01/31 13:13:40;;;;;;;12.48;4.57;;;8.70;88.10;;;;;;5035854;28;20036;-53
2022/01/31 13:16:10;;;;;;;9.00;3.40;;;8.80;89.30;;;;;;5069647;28;20032;-55
2022/01/31 13:18:37;;;;;;;8.75;3.40;;;8.80;89.50;;;;;;5064232;28;20384;-54
2022/01/31 13:21:05;;;;;;;5.63;2.20;;;8.80;89.30;;;;;;5066293;28;20033;-57
2022/01/31 13:23:35;;;;;;;11.07;4.72;;;8.70;88.40;;;;;;5072668;28;20028;-51
2022/01/31 13:26:04;;;;;;;14.10;5.00;;;8.60;89.10;;;;;;5057824;28;20071;-50
2022/01/31 13:28:30;;;;;;;9.48;4.22;;;8.70;88.50;;;;;;5062428;28;20380;-50
2022/01/31 13:31:17;;;;;;;12.75;5.63;;;8.60;88.40;;;;;;5073075;28;20027;-52
2022/01/31 13:33:55;;;;;;;9.90;3.72;;;8.60;89.50;;;;;;5072013;28;20126;-52
2022/01/31 13:36:21;;;;;;;12.82;4.18;;;8.40;89.60;;;;;;5022001;28;20488;-51
2022/01/31 13:38:47;;;;;;;11.93;5.53;;;8.50;89.80;;;;;;5018531;28;20388;-52